Aeroporto :
LOGIN :

Iscrizione | Disclaimer

   EN    FR    IT 

 










Sommario :    VFR   VFR Marginale   IFR   IFR Intensivo   IFR Molto Intensivo
Visibilità : 
Base nubi : 
>= 8 km
>= 3000ft
5 / 8 km
1000 / 3000 ft
1500m / 5 km
500 / 1000 ft
800 / 1500m
200 / 500 ft
< 800m
< 200 ft
Simboli :   Temporali  Nebbia  Neve Forte  Precipitazioni Forti  Vento > 20 kt
SIGMETs :   Varie  Temporali  Ghiacco  Turbolenza  Onda orograficha  Ceneri Vulcaniche






- Altitudine del aeroporto : 272 ft
- Codice IATA : MXN


LFRU - Morlaix-Ploujean

ULTIMO METAR :
  • 231800Z AUTO 25011KT 2700 BR OVC004 12/11 Q1026

METARs OBSOLETI :
  • 231730Z AUTO 26012KT 2600 BR OVC004 12/12 Q1026
  • 231700Z AUTO 26013KT 9999 OVC005 12/12 Q1026
  • 231630Z AUTO 26013KT 2400 -RADZ BR OVC005 12/12 Q1026
  • 231600Z AUTO 25012KT 2100 -DZ BR OVC005 13/12 Q1026
  • 231530Z AUTO 25013KT 2500 -DZ BR OVC005 13/12 Q1026
  • 231500Z AUTO 25015KT 6000 OVC006 13/12 Q1025

TAF N/A



MetMap, La meteo Aeronautica in un colpo d'occhio ! - Copyright ORBIFLY Dicembre 2007 - Disclaimer

ORBIFLY MET'MAP TEAM :

Programmazione e sviluppo : Alexandra Zaïnal
Concezione : Baudouin d'Aumeries
Aiuto per la programmazione : Marc-Olivier Méhu
Supporto tecnico e logistico : Manuel Goepfert
Aiuto per la traduzione : Arnaldo La Scala

Contatto : metmap@orbifly.com




FONTI E CREDITI :

   NOAA